Time;durP1;ratioP1;P1;durP2;ratioP2;P2;SDS_P1;SDS_P2;PMS_P1;PMS_P2;Temp;Humidity;BMP_temperature;BMP_pressure;BME280_temperature;BME280_humidity;BME280_pressure;Samples;Min_cycle;Max_cycle;Signal;HPM_P1;HPM_P2
2023/01/31 00:00:37;;;;;;;3.17;1.15;;;8.30;99.90;;;;;;6219748;23;20003;-80
2023/01/31 00:03:03;;;;;;;3.33;1.00;;;8.30;99.90;;;;;;6218688;23;20008;-77
2023/01/31 00:05:28;;;;;;;2.15;0.98;;;8.30;99.90;;;;;;6217397;23;20488;-79
2023/01/31 00:07:54;;;;;;;3.15;1.00;;;8.30;99.90;;;;;;6219275;23;20386;-79
2023/01/31 00:10:20;;;;;;;5.05;1.40;;;8.30;99.90;;;;;;6217786;23;20337;-79
2023/01/31 00:12:46;;;;;;;3.63;1.25;;;8.30;99.90;;;;;;6215928;23;20005;-79
2023/01/31 00:15:15;;;;;;;2.55;1.15;;;8.30;99.90;;;;;;6218467;23;20015;-79
2023/01/31 00:17:41;;;;;;;3.53;1.10;;;8.20;99.90;;;;;;6219954;23;20017;-79
2023/01/31 00:20:07;;;;;;;4.30;1.23;;;8.20;99.90;;;;;;6215099;23;20375;-78
2023/01/31 00:22:33;;;;;;;3.90;1.27;;;8.20;99.90;;;;;;6216222;23;20001;-78
2023/01/31 00:24:58;;;;;;;4.38;1.23;;;8.20;99.90;;;;;;6219909;23;20000;-78
2023/01/31 00:27:24;;;;;;;3.72;1.25;;;8.20;99.90;;;;;;6218234;23;20410;-77
2023/01/31 00:29:50;;;;;;;3.13;1.05;;;8.20;99.90;;;;;;6218676;23;20680;-77
2023/01/31 00:32:16;;;;;;;4.55;1.27;;;8.20;99.90;;;;;;6217969;23;20004;-78
2023/01/31 00:34:41;;;;;;;3.22;0.85;;;8.20;99.90;;;;;;6218248;23;20069;-78
2023/01/31 00:37:07;;;;;;;2.97;1.20;;;8.20;99.90;;;;;;6220014;23;20421;-79
2023/01/31 00:39:32;;;;;;;4.82;1.55;;;8.10;99.90;;;;;;6218729;23;20011;-78
2023/01/31 00:41:58;;;;;;;4.20;1.40;;;8.10;99.90;;;;;;6218789;23;20441;-79
2023/01/31 00:44:24;;;;;;;4.18;1.50;;;8.00;99.90;;;;;;6219998;23;20001;-79
2023/01/31 00:46:49;;;;;;;4.82;1.40;;;8.00;99.90;;;;;;6219398;23;20499;-79
2023/01/31 00:49:15;;;;;;;4.40;1.77;;;8.00;99.90;;;;;;6220167;23;20380;-79
2023/01/31 00:51:41;;;;;;;3.58;1.27;;;8.10;99.90;;;;;;6220492;23;20000;-79
2023/01/31 00:54:06;;;;;;;3.60;1.17;;;8.10;99.90;;;;;;6218399;23;20005;-79
2023/01/31 00:56:32;;;;;;;2.83;1.35;;;8.10;99.90;;;;;;6218748;23;20008;-79
2023/01/31 00:58:59;;;;;;;4.88;1.65;;;8.10;99.90;;;;;;6220214;23;20007;-79
2023/01/31 01:01:27;;;;;;;5.03;1.48;;;8.10;99.90;;;;;;6220037;23;20004;-80
2023/01/31 01:03:54;;;;;;;6.70;1.60;;;8.10;99.90;;;;;;6218588;23;20012;-79
2023/01/31 01:06:21;;;;;;;2.70;1.20;;;8.10;99.90;;;;;;6218464;23;20004;-79
2023/01/31 01:08:47;;;;;;;4.40;1.30;;;8.20;99.90;;;;;;6220232;23;20005;-79
2023/01/31 01:11:18;;;;;;;3.30;1.23;;;8.20;99.90;;;;;;6220263;23;20025;-79
2023/01/31 01:13:44;;;;;;;3.88;1.70;;;8.20;99.90;;;;;;6220228;23;20050;-79
2023/01/31 01:16:14;;;;;;;4.25;1.35;;;8.20;99.90;;;;;;6218357;23;20005;-79
2023/01/31 01:18:41;;;;;;;3.95;1.25;;;8.20;99.90;;;;;;6219681;23;20008;-79
2023/01/31 01:21:10;;;;;;;6.05;1.65;;;8.10;99.90;;;;;;6218754;23;20096;-81
2023/01/31 01:23:37;;;;;;;4.63;1.42;;;8.10;99.90;;;;;;6218382;23;20075;-80
2023/01/31 01:26:04;;;;;;;5.20;1.65;;;8.10;99.90;;;;;;6218475;23;20004;-79
2023/01/31 01:28:32;;;;;;;4.93;1.30;;;8.10;99.90;;;;;;6218572;23;20323;-78
2023/01/31 01:30:58;;;;;;;3.20;1.17;;;8.10;99.90;;;;;;6218128;23;20446;-79
2023/01/31 01:33:24;;;;;;;4.93;1.70;;;8.20;99.90;;;;;;6221575;23;20100;-79
2023/01/31 01:35:49;;;;;;;3.03;1.27;;;8.20;99.90;;;;;;6220458;23;20004;-79
2023/01/31 01:38:15;;;;;;;4.28;1.45;;;8.20;99.90;;;;;;6221919;23;20039;-79
2023/01/31 01:40:41;;;;;;;4.78;1.50;;;8.10;99.90;;;;;;6220391;23;20004;-78
2023/01/31 01:43:10;;;;;;;3.13;1.10;;;8.10;99.90;;;;;;6221417;23;20028;-77
2023/01/31 01:45:36;;;;;;;2.95;1.30;;;8.10;99.90;;;;;;6220276;23;20311;-78
2023/01/31 01:48:07;;;;;;;2.70;1.08;;;8.10;99.90;;;;;;6221636;23;19997;-77
2023/01/31 01:50:42;;;;;;;3.55;1.30;;;8.10;99.90;;;;;;6221939;23;19997;-78
2023/01/31 01:53:20;;;;;;;2.38;1.25;;;8.10;99.90;;;;;;6221971;23;20009;-77
2023/01/31 01:56:05;;;;;;;4.93;1.00;;;8.10;99.90;;;;;;6222114;23;20465;-77
2023/01/31 01:58:37;;;;;;;2.72;1.10;;;8.10;99.90;;;;;;6222291;23;20001;-77
2023/01/31 02:01:06;;;;;;;2.95;0.93;;;8.10;99.90;;;;;;6221912;23;20416;-77
2023/01/31 02:03:32;;;;;;;2.72;0.85;;;8.10;99.90;;;;;;6221594;23;20001;-77
2023/01/31 02:06:03;;;;;;;2.15;0.80;;;8.10;99.90;;;;;;6221489;23;20425;-78
2023/01/31 02:08:32;;;;;;;4.80;1.15;;;8.10;99.90;;;;;;6221912;23;20001;-79
2023/01/31 02:10:57;;;;;;;3.60;1.10;;;8.10;99.90;;;;;;6221567;23;20010;-78
2023/01/31 02:13:24;;;;;;;3.58;0.95;;;8.10;99.90;;;;;;6219702;23;20004;-78
2023/01/31 02:15:50;;;;;;;6.20;1.55;;;8.10;99.90;;;;;;6220908;23;20023;-78
2023/01/31 02:18:18;;;;;;;6.15;1.25;;;8.10;99.90;;;;;;6221241;23;20434;-78
2023/01/31 02:21:08;;;;;;;4.63;1.23;;;8.10;99.90;;;;;;6221432;23;20035;-78
2023/01/31 02:23:52;;;;;;;4.15;1.27;;;8.00;99.90;;;;;;6221489;23;20065;-78
2023/01/31 02:26:55;;;;;;;3.20;1.10;;;8.00;99.90;;;;;;6219603;23;20001;-79
2023/01/31 02:29:49;;;;;;;3.35;1.08;;;8.00;99.90;;;;;;6221381;23;20005;-78
2023/01/31 02:32:33;;;;;;;2.33;0.95;;;8.10;99.90;;;;;;6221442;23;20004;-78
2023/01/31 02:35:35;;;;;;;3.60;1.35;;;8.10;99.90;;;;;;6221229;23;20000;-79
2023/01/31 02:38:41;;;;;;;2.22;0.65;;;8.10;99.90;;;;;;6221503;23;20304;-79
2023/01/31 02:41:19;;;;;;;2.33;1.02;;;8.10;99.90;;;;;;6134153;23;20138;-77
2023/01/31 02:47:00;;;;;;;5.22;1.00;;;8.00;99.90;;;;;;6220563;23;20504;-76
2023/01/31 02:49:49;;;;;;;4.30;1.38;;;8.10;99.90;;;;;;6221266;23;20020;-77
2023/01/31 02:52:38;;;;;;;2.90;0.98;;;8.10;99.90;;;;;;6211400;23;20011;-77
2023/01/31 02:58:01;;;;;;;4.13;1.00;;;8.10;99.90;;;;;;6221176;23;20067;-76
2023/01/31 03:00:30;;;;;;;4.60;1.25;;;8.10;99.90;;;;;;6221030;23;20007;-76
2023/01/31 03:02:56;;;;;;;3.75;1.20;;;8.00;99.90;;;;;;6221031;23;20373;-77
2023/01/31 03:05:22;;;;;;;2.63;0.70;;;8.00;99.90;;;;;;6219935;23;20004;-77
2023/01/31 03:07:53;;;;;;;2.78;0.90;;;8.00;99.90;;;;;;6221197;23;20039;-77
2023/01/31 03:10:21;;;;;;;3.90;1.30;;;8.10;99.90;;;;;;6219443;23;20001;-77
2023/01/31 03:13:04;;;;;;;2.72;1.13;;;8.00;99.90;;;;;;6219688;23;20032;-76
2023/01/31 03:18:45;;;;;;;4.70;1.38;;;8.00;99.90;;;;;;6220689;23;20016;-76
2023/01/31 03:21:35;;;;;;;3.40;1.17;;;8.00;99.90;;;;;;6221310;23;20028;-76
2023/01/31 03:24:03;;;;;;;1.85;0.70;;;7.90;99.90;;;;;;6220841;23;20012;-76
2023/01/31 03:26:29;;;;;;;4.63;0.93;;;7.90;99.90;;;;;;6220659;23;20108;-76
2023/01/31 03:28:57;;;;;;;4.38;1.00;;;7.90;99.90;;;;;;6219343;23;20001;-75
2023/01/31 03:31:29;;;;;;;3.50;1.15;;;7.90;99.90;;;;;;6190094;23;20013;-76
2023/01/31 03:34:00;;;;;;;2.60;1.23;;;7.90;99.90;;;;;;6190772;23;20012;-76
2023/01/31 03:36:34;;;;;;;3.22;0.98;;;7.90;99.90;;;;;;6190395;23;20059;-76
2023/01/31 03:39:32;;;;;;;3.50;0.80;;;7.90;99.90;;;;;;6164484;23;20009;-75
2023/01/31 03:42:07;;;;;;;3.35;1.00;;;7.90;99.90;;;;;;6190493;23;20005;-75
2023/01/31 03:44:54;;;;;;;3.78;1.00;;;7.90;99.90;;;;;;6164061;23;20091;-76
2023/01/31 03:47:27;;;;;;;2.97;0.88;;;7.90;99.90;;;;;;6164391;23;20338;-76
2023/01/31 03:49:58;;;;;;;3.35;0.82;;;7.90;99.90;;;;;;6164343;23;20017;-75
2023/01/31 03:52:31;;;;;;;3.33;0.98;;;7.90;99.90;;;;;;6190620;23;20072;-77
2023/01/31 03:55:04;;;;;;;3.22;1.15;;;8.00;99.90;;;;;;6190432;23;20048;-77
2023/01/31 03:57:35;;;;;;;2.45;1.00;;;7.90;99.90;;;;;;6164375;23;20005;-77
2023/01/31 04:00:04;;;;;;;3.60;0.80;;;7.90;99.90;;;;;;6163991;23;20016;-77
2023/01/31 04:02:35;;;;;;;3.10;1.00;;;7.90;99.90;;;;;;6190350;23;20072;-77
2023/01/31 04:05:11;;;;;;;3.15;0.98;;;7.90;99.90;;;;;;6164383;23;20008;-78
2023/01/31 04:07:37;;;;;;;2.67;0.65;;;8.00;99.90;;;;;;6163934;23;20008;-77
2023/01/31 04:10:14;;;;;;;4.18;1.35;;;8.00;99.90;;;;;;6190471;23;19997;-77
2023/01/31 04:12:40;;;;;;;2.63;1.05;;;8.00;99.90;;;;;;6190859;23;20001;-77
2023/01/31 04:15:07;;;;;;;2.92;1.30;;;7.90;99.90;;;;;;6190165;23;20000;-78
2023/01/31 04:17:33;;;;;;;5.43;1.85;;;7.90;99.90;;;;;;6190238;23;20077;-78
2023/01/31 04:19:59;;;;;;;4.70;1.67;;;7.80;99.90;;;;;;6164354;23;20001;-77
2023/01/31 04:22:25;;;;;;;3.08;1.00;;;7.80;99.90;;;;;;6163565;23;20020;-77
2023/01/31 04:24:50;;;;;;;1.13;0.60;;;7.90;99.90;;;;;;6190192;23;20008;-77
2023/01/31 04:27:16;;;;;;;2.80;0.90;;;7.90;99.90;;;;;;6190284;23;20005;-77
2023/01/31 04:29:42;;;;;;;4.68;1.13;;;8.00;99.90;;;;;;6199044;23;20008;-78
2023/01/31 04:32:08;;;;;;;5.45;1.20;;;7.90;99.90;;;;;;6220119;23;20074;-77
2023/01/31 04:34:33;;;;;;;5.03;1.13;;;7.90;99.90;;;;;;6220176;23;20032;-76
2023/01/31 04:36:59;;;;;;;3.45;1.20;;;8.00;99.90;;;;;;6220808;23;20064;-78
2023/01/31 04:39:26;;;;;;;3.88;1.00;;;7.90;99.90;;;;;;6219198;23;20004;-77
2023/01/31 04:41:51;;;;;;;2.85;0.88;;;7.90;99.90;;;;;;6218854;23;20393;-77
2023/01/31 04:44:17;;;;;;;3.47;1.02;;;7.90;99.90;;;;;;6220344;23;20001;-77
2023/01/31 04:46:45;;;;;;;3.70;1.05;;;7.90;99.90;;;;;;6219855;23;19997;-77
2023/01/31 04:49:11;;;;;;;4.38;0.80;;;7.90;99.90;;;;;;6220398;23;20024;-77
2023/01/31 04:51:37;;;;;;;2.20;0.73;;;8.00;99.90;;;;;;6220411;23;20007;-77
2023/01/31 04:54:03;;;;;;;4.03;1.10;;;8.00;99.90;;;;;;6218907;23;20004;-76
2023/01/31 04:56:29;;;;;;;2.65;0.88;;;8.00;99.90;;;;;;6220410;23;20004;-76
2023/01/31 04:58:54;;;;;;;4.15;0.95;;;7.90;99.90;;;;;;6220447;23;20005;-76
2023/01/31 05:01:20;;;;;;;3.03;1.10;;;7.90;99.90;;;;;;6219775;23;20005;-77
2023/01/31 05:03:46;;;;;;;3.53;1.10;;;7.90;99.90;;;;;;6220233;23;20047;-76
2023/01/31 05:06:11;;;;;;;4.15;1.02;;;7.90;99.90;;;;;;6220066;23;20068;-76
2023/01/31 05:08:37;;;;;;;3.97;0.90;;;7.90;99.90;;;;;;6222174;23;19997;-76
2023/01/31 05:11:04;;;;;;;2.75;1.08;;;7.80;99.90;;;;;;6221021;23;20001;-76
2023/01/31 05:13:31;;;;;;;2.83;0.73;;;7.80;99.90;;;;;;6222269;23;20072;-76
2023/01/31 05:15:57;;;;;;;2.67;0.93;;;7.80;99.90;;;;;;6220556;23;20036;-75
2023/01/31 05:18:23;;;;;;;4.60;1.15;;;7.90;99.90;;;;;;6220759;23;20070;-76
2023/01/31 05:20:49;;;;;;;3.38;0.68;;;7.80;99.90;;;;;;6220767;23;20099;-75
2023/01/31 05:23:18;;;;;;;4.80;0.90;;;7.80;99.90;;;;;;6220570;23;20005;-75
2023/01/31 05:25:44;;;;;;;4.28;1.10;;;7.80;99.90;;;;;;6222091;23;20338;-76
2023/01/31 05:28:10;;;;;;;3.97;1.17;;;7.70;99.90;;;;;;6222299;23;20001;-76
2023/01/31 05:30:36;;;;;;;5.00;1.13;;;7.70;99.90;;;;;;6219866;23;20021;-76
2023/01/31 05:33:02;;;;;;;3.67;0.90;;;7.60;99.90;;;;;;6222014;23;20000;-76
2023/01/31 05:35:29;;;;;;;4.10;0.88;;;7.70;99.90;;;;;;6220451;23;20012;-76
2023/01/31 05:37:55;;;;;;;4.32;0.82;;;7.70;99.90;;;;;;6221951;23;20005;-76
2023/01/31 05:40:21;;;;;;;3.13;0.90;;;7.70;99.90;;;;;;6220278;23;20064;-76
2023/01/31 05:42:59;;;;;;;3.78;1.33;;;7.70;99.90;;;;;;6221486;23;20005;-76
2023/01/31 05:45:25;;;;;;;2.70;0.90;;;7.60;99.90;;;;;;6221655;23;20046;-76
2023/01/31 05:47:51;;;;;;;2.95;0.93;;;7.60;99.90;;;;;;6221578;23;20004;-78
2023/01/31 05:50:17;;;;;;;4.78;1.48;;;7.60;99.90;;;;;;6221638;23;19997;-78
2023/01/31 05:52:51;;;;;;;4.53;1.10;;;7.60;99.90;;;;;;6221783;23;20623;-78
2023/01/31 05:55:17;;;;;;;3.17;1.33;;;7.60;99.90;;;;;;6220467;23;20004;-78
2023/01/31 05:57:43;;;;;;;2.83;1.17;;;7.60;99.90;;;;;;6220169;23;20001;-77
2023/01/31 06:00:09;;;;;;;5.88;1.52;;;7.60;99.90;;;;;;6219695;23;20007;-77
2023/01/31 06:02:35;;;;;;;3.53;1.02;;;7.50;99.90;;;;;;6219739;23;20346;-77
2023/01/31 06:05:00;;;;;;;2.88;0.75;;;7.60;99.90;;;;;;6222052;23;20008;-77
2023/01/31 06:07:26;;;;;;;4.78;1.20;;;7.60;99.90;;;;;;6221225;23;20005;-77
2023/01/31 06:09:52;;;;;;;3.88;0.85;;;7.60;99.90;;;;;;6220424;23;20027;-77
2023/01/31 06:12:17;;;;;;;2.72;1.00;;;7.60;99.90;;;;;;6220140;23;20059;-76
2023/01/31 06:14:44;;;;;;;4.78;0.93;;;7.70;99.90;;;;;;6220926;23;20008;-76
2023/01/31 06:17:11;;;;;;;2.75;0.90;;;7.70;99.90;;;;;;6221346;23;20007;-76
2023/01/31 06:19:37;;;;;;;2.97;0.80;;;7.70;99.90;;;;;;6221168;23;20084;-76
2023/01/31 06:22:04;;;;;;;2.50;0.90;;;7.70;99.90;;;;;;6220897;23;20422;-76
2023/01/31 06:24:30;;;;;;;4.85;1.15;;;7.80;99.90;;;;;;6219642;23;20084;-78
2023/01/31 06:26:56;;;;;;;4.55;1.17;;;7.80;99.90;;;;;;6221365;23;20003;-78
2023/01/31 06:29:21;;;;;;;3.90;1.10;;;7.80;99.90;;;;;;6219826;23;20039;-77
2023/01/31 06:31:47;;;;;;;3.22;1.13;;;7.80;99.90;;;;;;6220717;23;20004;-77
2023/01/31 06:34:13;;;;;;;4.93;1.17;;;7.70;99.90;;;;;;6221102;23;20079;-77
2023/01/31 06:36:39;;;;;;;4.22;1.33;;;7.70;99.90;;;;;;6221134;23;20528;-77
2023/01/31 06:39:04;;;;;;;2.35;1.05;;;7.60;99.90;;;;;;6219959;23;20095;-77
2023/01/31 06:41:30;;;;;;;5.35;0.90;;;7.60;99.90;;;;;;6221111;23;20027;-77
2023/01/31 06:43:56;;;;;;;2.80;1.25;;;7.60;99.90;;;;;;6219089;23;20009;-77
2023/01/31 06:46:22;;;;;;;2.67;0.90;;;7.60;99.90;;;;;;6219623;23;20005;-77
2023/01/31 06:48:48;;;;;;;2.67;0.80;;;7.60;99.90;;;;;;6220642;23;20010;-77
2023/01/31 06:51:14;;;;;;;5.43;1.23;;;7.60;99.90;;;;;;6219819;23;20080;-76
2023/01/31 06:53:40;;;;;;;4.07;1.10;;;7.60;99.90;;;;;;6220846;23;20005;-76
2023/01/31 06:56:08;;;;;;;4.30;1.30;;;7.60;99.90;;;;;;6220622;23;20011;-76
2023/01/31 06:58:34;;;;;;;5.18;1.75;;;7.60;99.90;;;;;;6219601;23;20009;-76
2023/01/31 07:01:05;;;;;;;4.43;0.98;;;7.60;99.90;;;;;;6220673;23;20008;-76
2023/01/31 07:03:31;;;;;;;3.40;1.33;;;7.60;99.90;;;;;;6220579;23;20005;-75
2023/01/31 07:05:56;;;;;;;4.45;1.33;;;7.60;99.90;;;;;;6220462;23;20005;-75
2023/01/31 07:08:22;;;;;;;4.30;1.00;;;7.50;99.90;;;;;;6221081;23;19997;-75
2023/01/31 07:10:48;;;;;;;3.65;1.15;;;7.60;99.90;;;;;;6221142;23;20004;-75
2023/01/31 07:13:14;;;;;;;3.17;1.00;;;7.60;99.90;;;;;;6220792;23;20001;-75
2023/01/31 07:15:40;;;;;;;7.15;1.48;;;7.60;99.90;;;;;;6220651;23;20001;-77
2023/01/31 07:18:06;;;;;;;3.97;1.05;;;7.60;99.90;;;;;;6220585;23;20446;-76
2023/01/31 07:20:32;;;;;;;2.35;0.88;;;7.60;99.90;;;;;;6217597;23;20009;-78
2023/01/31 07:22:58;;;;;;;4.75;1.13;;;7.60;99.90;;;;;;6219696;23;20338;-76
2023/01/31 07:25:25;;;;;;;2.97;1.38;;;7.60;99.90;;;;;;6220774;23;20001;-76
2023/01/31 07:27:50;;;;;;;3.45;1.30;;;7.70;99.90;;;;;;6219111;23;20007;-76
2023/01/31 07:30:17;;;;;;;3.35;1.10;;;7.70;99.90;;;;;;6218657;23;20017;-78
2023/01/31 07:32:42;;;;;;;3.15;1.05;;;7.70;99.90;;;;;;6220499;23;19996;-77
2023/01/31 07:35:08;;;;;;;2.10;1.05;;;7.80;99.90;;;;;;6220657;23;20051;-77
2023/01/31 07:37:34;;;;;;;3.72;0.80;;;7.80;99.90;;;;;;6219293;23;20004;-77
2023/01/31 07:40:00;;;;;;;4.85;1.13;;;7.80;99.90;;;;;;6220559;23;20001;-77
2023/01/31 07:42:27;;;;;;;5.78;1.42;;;7.90;99.90;;;;;;6215533;23;20430;-76
2023/01/31 07:44:53;;;;;;;5.53;1.30;;;7.80;99.90;;;;;;6218732;23;20414;-77
2023/01/31 07:47:19;;;;;;;7.22;1.60;;;7.80;99.90;;;;;;6219829;23;20011;-77
2023/01/31 07:49:45;;;;;;;4.22;1.42;;;7.70;99.90;;;;;;6217828;23;20079;-76
2023/01/31 07:52:10;;;;;;;4.30;1.33;;;7.60;99.90;;;;;;6219853;23;20023;-77
2023/01/31 07:54:36;;;;;;;4.38;1.77;;;7.60;99.90;;;;;;6219910;23;20040;-77
2023/01/31 07:57:02;;;;;;;5.03;1.45;;;7.60;99.90;;;;;;6218340;23;20437;-77
2023/01/31 07:59:27;;;;;;;5.75;1.70;;;7.70;99.90;;;;;;6219840;23;20001;-78
2023/01/31 08:04:37;;;;;;;5.90;1.20;;;7.60;99.90;;;;;;6219827;23;20031;-74
2023/01/31 08:07:05;;;;;;;5.22;1.60;;;7.70;99.90;;;;;;6220435;23;19997;-70
2023/01/31 08:09:31;;;;;;;4.40;1.00;;;7.80;99.90;;;;;;6218421;23;20028;-70
2023/01/31 08:11:57;;;;;;;6.05;1.77;;;7.80;99.90;;;;;;6218127;23;20011;-77
2023/01/31 08:14:24;;;;;;;5.35;1.70;;;7.90;99.90;;;;;;6218138;23;20005;-79
2023/01/31 08:16:59;;;;;;;3.38;1.25;;;7.90;99.90;;;;;;6218273;23;20005;-69
2023/01/31 08:19:25;;;;;;;3.85;1.20;;;7.90;99.90;;;;;;6220369;23;20005;-70
2023/01/31 08:21:51;;;;;;;3.63;1.20;;;7.90;99.90;;;;;;6219052;23;20005;-70
2023/01/31 08:24:16;;;;;;;4.75;1.25;;;7.90;99.90;;;;;;6219949;23;20043;-70
2023/01/31 08:26:42;;;;;;;4.20;1.00;;;8.00;99.90;;;;;;6218705;23;20035;-70
2023/01/31 08:29:08;;;;;;;4.30;1.45;;;8.00;99.90;;;;;;6219868;23;20011;-71
2023/01/31 08:31:34;;;;;;;5.60;1.67;;;8.00;99.90;;;;;;6219257;23;20001;-70
2023/01/31 08:33:59;;;;;;;5.47;1.67;;;8.00;99.90;;;;;;6219843;23;20036;-70
2023/01/31 08:36:33;;;;;;;5.30;1.60;;;8.00;99.90;;;;;;6220183;23;20452;-70
2023/01/31 08:38:59;;;;;;;5.07;1.70;;;8.00;99.90;;;;;;6219905;23;20001;-77
2023/01/31 08:41:26;;;;;;;3.53;1.52;;;7.90;99.90;;;;;;6219524;23;20067;-72
2023/01/31 08:43:54;;;;;;;8.23;1.85;;;7.90;99.90;;;;;;6218803;23;20067;-71
2023/01/31 08:46:20;;;;;;;3.33;1.60;;;7.90;99.90;;;;;;6217981;23;20000;-71
2023/01/31 08:48:46;;;;;;;5.60;1.70;;;8.00;99.90;;;;;;6219813;23;20007;-71
2023/01/31 08:51:12;;;;;;;5.82;1.70;;;7.90;99.90;;;;;;6218298;23;20083;-69
2023/01/31 08:53:39;;;;;;;7.47;2.13;;;8.00;99.90;;;;;;6219588;23;20001;-69
2023/01/31 08:56:07;;;;;;;4.82;1.60;;;7.90;99.90;;;;;;6220070;23;20043;-69
2023/01/31 08:58:34;;;;;;;2.65;1.27;;;7.90;99.90;;;;;;6219992;23;20005;-69
2023/01/31 09:01:20;;;;;;;4.60;1.23;;;8.00;99.90;;;;;;6219407;23;20004;-72
2023/01/31 09:03:47;;;;;;;4.65;1.35;;;8.10;99.90;;;;;;6219513;23;20793;-71
2023/01/31 09:06:18;;;;;;;6.13;1.52;;;8.10;99.90;;;;;;6219759;23;19997;-72
2023/01/31 09:08:44;;;;;;;5.32;1.35;;;8.10;99.90;;;;;;6219046;23;20299;-72
2023/01/31 09:11:15;;;;;;;4.07;1.20;;;8.20;99.90;;;;;;6219372;23;20127;-72
2023/01/31 09:13:42;;;;;;;4.82;1.48;;;8.20;99.90;;;;;;6217697;23;20012;-71
2023/01/31 09:16:10;;;;;;;2.72;1.08;;;8.20;99.90;;;;;;6219421;23;20442;-72
2023/01/31 09:18:39;;;;;;;3.90;1.20;;;8.30;99.90;;;;;;6217920;23;20008;-72
2023/01/31 09:21:11;;;;;;;8.30;1.40;;;8.30;99.90;;;;;;6218207;23;20005;-72
2023/01/31 09:23:38;;;;;;;3.22;1.08;;;8.40;99.90;;;;;;6217964;23;20005;-72
2023/01/31 09:26:04;;;;;;;2.50;0.80;;;8.30;99.90;;;;;;6217547;23;20334;-72
2023/01/31 09:28:30;;;;;;;5.50;1.30;;;8.30;99.90;;;;;;6218897;23;20080;-72
2023/01/31 09:31:02;;;;;;;6.03;1.35;;;8.30;99.90;;;;;;6219146;23;20015;-72
2023/01/31 09:33:31;;;;;;;2.70;1.10;;;8.30;99.90;;;;;;6219358;23;20009;-72
2023/01/31 09:36:04;;;;;;;5.63;1.35;;;8.30;99.90;;;;;;6219834;23;20032;-72
2023/01/31 09:38:30;;;;;;;3.03;1.05;;;8.30;99.90;;;;;;6219421;23;20007;-72
2023/01/31 09:41:00;;;;;;;5.25;1.60;;;8.40;99.90;;;;;;6219127;23;19996;-72
2023/01/31 09:43:33;;;;;;;4.30;1.48;;;8.40;99.90;;;;;;6219361;23;20029;-72
2023/01/31 09:46:03;;;;;;;3.88;1.20;;;8.50;99.90;;;;;;6219242;23;20444;-71
2023/01/31 09:48:34;;;;;;;5.88;1.85;;;8.40;99.90;;;;;;6219165;23;20051;-72
2023/01/31 09:51:01;;;;;;;6.43;1.60;;;8.50;99.90;;;;;;6219403;23;20000;-72
2023/01/31 09:53:31;;;;;;;4.03;1.10;;;8.40;99.90;;;;;;6220678;23;20422;-72
2023/01/31 09:56:26;;;;;;;3.17;1.20;;;8.50;99.90;;;;;;6221295;23;20008;-72
2023/01/31 09:59:03;;;;;;;2.67;0.98;;;8.50;99.90;;;;;;6212642;23;20011;-73
2023/01/31 10:01:48;;;;;;;6.60;1.40;;;8.50;99.90;;;;;;6219586;23;20004;-72
2023/01/31 10:04:14;;;;;;;2.53;0.98;;;8.50;99.90;;;;;;6220880;23;20004;-71
2023/01/31 10:06:57;;;;;;;4.15;1.45;;;8.50;99.90;;;;;;6221481;23;20079;-71
2023/01/31 10:09:56;;;;;;;3.85;1.30;;;8.50;99.90;;;;;;6218365;23;19997;-73
2023/01/31 10:12:50;;;;;;;5.45;1.75;;;8.60;99.90;;;;;;6215333;23;20426;-72
2023/01/31 10:15:28;;;;;;;3.50;1.20;;;8.50;99.90;;;;;;6219715;23;20002;-72
2023/01/31 10:18:00;;;;;;;6.32;1.70;;;8.60;99.90;;;;;;6220560;23;20001;-72
2023/01/31 10:20:37;;;;;;;6.03;1.48;;;8.50;99.90;;;;;;6220527;23;20028;-72
2023/01/31 10:23:10;;;;;;;4.57;1.25;;;8.60;99.90;;;;;;6218153;23;20043;-72
2023/01/31 10:25:44;;;;;;;3.85;1.30;;;8.50;99.90;;;;;;6219970;23;20001;-72
2023/01/31 10:28:22;;;;;;;4.05;1.40;;;8.60;99.90;;;;;;6220615;23;20425;-72
2023/01/31 10:30:55;;;;;;;6.13;1.45;;;8.60;99.90;;;;;;6219035;23;20017;-72
2023/01/31 10:34:05;;;;;;;3.83;1.13;;;8.60;99.90;;;;;;6220076;23;20426;-72
2023/01/31 10:37:00;;;;;;;2.40;1.02;;;8.70;99.90;;;;;;6220178;23;20023;-71
2023/01/31 10:39:31;;;;;;;2.33;0.93;;;8.70;99.90;;;;;;6220446;23;20005;-71
2023/01/31 10:42:14;;;;;;;3.30;1.27;;;8.70;99.90;;;;;;6220422;23;20005;-72
2023/01/31 10:44:53;;;;;;;2.63;1.17;;;8.70;99.90;;;;;;6217852;23;20013;-71
2023/01/31 10:47:31;;;;;;;5.13;1.73;;;8.80;99.90;;;;;;6218194;23;20426;-71
2023/01/31 10:49:57;;;;;;;4.03;1.25;;;8.70;99.90;;;;;;6220098;23;20315;-71
2023/01/31 10:52:27;;;;;;;4.90;1.38;;;8.70;99.90;;;;;;6219969;23;20007;-72
2023/01/31 10:55:08;;;;;;;3.60;1.20;;;8.80;99.90;;;;;;6220094;23;20008;-71
2023/01/31 10:57:34;;;;;;;2.40;1.17;;;8.90;99.90;;;;;;6220725;23;20059;-71
2023/01/31 11:00:00;;;;;;;2.97;1.05;;;8.90;99.90;;;;;;6220206;23;20016;-70
2023/01/31 11:02:27;;;;;;;3.47;1.17;;;8.90;99.90;;;;;;6219849;23;20004;-70
2023/01/31 11:04:56;;;;;;;5.13;1.58;;;9.00;99.90;;;;;;6219227;23;20012;-70
2023/01/31 11:07:23;;;;;;;5.03;1.42;;;9.10;99.90;;;;;;6220702;23;20023;-70
2023/01/31 11:09:53;;;;;;;4.38;1.13;;;9.10;99.90;;;;;;6220545;23;20004;-71
2023/01/31 11:12:20;;;;;;;3.78;1.20;;;9.20;99.90;;;;;;6220540;23;19997;-67
2023/01/31 11:15:05;;;;;;;4.97;1.38;;;9.30;99.90;;;;;;6220347;23;20011;-67
2023/01/31 11:17:34;;;;;;;6.07;1.63;;;9.30;99.90;;;;;;6220333;23;20446;-67
2023/01/31 11:20:00;;;;;;;4.10;1.27;;;9.30;99.90;;;;;;6220534;23;20001;-66
2023/01/31 11:22:32;;;;;;;8.80;1.83;;;9.40;99.90;;;;;;6220197;23;20000;-69
2023/01/31 11:25:02;;;;;;;5.97;1.42;;;9.40;99.90;;;;;;6218365;23;20045;-68
2023/01/31 11:27:36;;;;;;;4.57;2.03;;;9.50;99.90;;;;;;6219138;23;20449;-69
2023/01/31 11:30:04;;;;;;;3.85;1.20;;;9.40;99.90;;;;;;6218315;23;20354;-68
2023/01/31 11:32:34;;;;;;;4.22;1.38;;;9.40;99.90;;;;;;6219528;23;20007;-68
2023/01/31 11:35:05;;;;;;;6.78;1.42;;;9.60;99.90;;;;;;6219895;23;20070;-72
2023/01/31 11:37:32;;;;;;;11.10;1.73;;;9.60;99.90;;;;;;6219363;23;20001;-72
2023/01/31 11:40:14;;;;;;;4.82;1.95;;;9.80;99.90;;;;;;6220074;23;20001;-72
2023/01/31 11:43:16;;;;;;;5.65;1.52;;;9.80;99.90;;;;;;6219978;23;20028;-67
2023/01/31 11:45:44;;;;;;;4.47;1.35;;;9.90;99.90;;;;;;6217450;23;20011;-68
2023/01/31 11:48:25;;;;;;;5.45;1.55;;;9.90;99.90;;;;;;6220600;23;20000;-68
2023/01/31 11:50:51;;;;;;;4.05;1.10;;;9.90;99.90;;;;;;6218692;23;20083;-67
2023/01/31 11:53:21;;;;;;;5.35;1.63;;;9.90;99.90;;;;;;6220824;23;20062;-68
2023/01/31 11:55:48;;;;;;;4.55;1.50;;;9.80;99.90;;;;;;6220379;23;20457;-67
2023/01/31 11:58:22;;;;;;;4.68;1.30;;;9.80;99.90;;;;;;6218609;23;20063;-68
2023/01/31 12:00:53;;;;;;;;;;;9.80;99.90;;;;;;6218524;23;20323;-68
2023/01/31 12:03:19;;;;;;;3.97;1.13;;;9.70;99.90;;;;;;6218099;23;19910;-68
2023/01/31 12:05:50;;;;;;;4.63;1.42;;;9.60;99.90;;;;;;6220600;23;20378;-68
2023/01/31 12:08:36;;;;;;;6.93;1.52;;;9.70;99.90;;;;;;6220030;23;20005;-68
2023/01/31 12:11:30;;;;;;;5.53;1.77;;;9.70;99.90;;;;;;6220388;23;20008;-68
2023/01/31 12:14:13;;;;;;;7.68;1.88;;;9.80;99.90;;;;;;6220346;23;20009;-68
2023/01/31 12:16:39;;;;;;;5.20;1.30;;;9.80;99.90;;;;;;6219843;23;20011;-69
2023/01/31 12:19:11;;;;;;;4.63;1.42;;;9.90;99.90;;;;;;6219701;23;20012;-70
2023/01/31 12:22:13;;;;;;;4.43;1.55;;;9.90;99.90;;;;;;6219806;23;20008;-74
2023/01/31 12:25:03;;;;;;;6.97;1.38;;;9.80;99.90;;;;;;6219896;23;20445;-68
2023/01/31 12:27:34;;;;;;;5.47;1.38;;;9.80;99.90;;;;;;6218192;23;20611;-70
2023/01/31 12:30:23;;;;;;;4.63;1.30;;;9.70;99.90;;;;;;6219761;23;20008;-70
2023/01/31 12:33:04;;;;;;;3.70;1.00;;;9.80;99.90;;;;;;6210242;23;20342;-70
2023/01/31 12:35:35;;;;;;;4.63;1.20;;;9.80;99.90;;;;;;6220131;23;20001;-69
2023/01/31 12:38:33;;;;;;;3.55;1.20;;;9.80;99.90;;;;;;6220096;23;20426;-70
2023/01/31 12:41:23;;;;;;;3.47;1.23;;;9.80;99.90;;;;;;6218563;23;20713;-70
2023/01/31 12:44:15;;;;;;;5.25;1.85;;;9.80;99.90;;;;;;6218344;23;20004;-68
2023/01/31 12:47:00;;;;;;;7.97;1.95;;;9.80;99.90;;;;;;6218224;23;20065;-69
2023/01/31 12:49:45;;;;;;;4.95;1.63;;;9.80;99.90;;;;;;6219277;23;20008;-69
2023/01/31 12:52:31;;;;;;;5.30;1.52;;;9.80;99.90;;;;;;6218024;23;20468;-69
2023/01/31 12:55:00;;;;;;;4.03;2.00;;;9.90;99.90;;;;;;6218257;23;20008;-70
2023/01/31 12:57:37;;;;;;;5.35;1.50;;;9.90;99.90;;;;;;6218593;23;20385;-70
2023/01/31 13:00:28;;;;;;;4.72;1.17;;;10.00;99.90;;;;;;6217917;23;20005;-70
2023/01/31 13:03:08;;;;;;;2.10;0.93;;;10.00;99.90;;;;;;6219760;23;20060;-69
2023/01/31 13:05:52;;;;;;;5.90;1.35;;;10.00;99.90;;;;;;6218600;23;20004;-70
2023/01/31 13:08:21;;;;;;;5.75;2.05;;;10.00;99.90;;;;;;6219601;23;20556;-70
2023/01/31 13:10:50;;;;;;;3.38;1.10;;;10.10;99.90;;;;;;6217218;23;20005;-69
2023/01/31 13:13:24;;;;;;;4.50;1.50;;;10.20;99.90;;;;;;6218649;23;20005;-69
2023/01/31 13:15:54;;;;;;;6.82;1.48;;;10.40;99.90;;;;;;6218717;23;20009;-69
2023/01/31 13:18:22;;;;;;;3.05;1.13;;;10.40;99.90;;;;;;6218997;23;20000;-69
2023/01/31 13:20:59;;;;;;;4.63;1.50;;;10.50;99.90;;;;;;6220210;23;20012;-69
2023/01/31 13:23:43;;;;;;;4.43;1.08;;;10.60;99.90;;;;;;6219708;23;20051;-69
2023/01/31 13:26:27;;;;;;;2.60;0.88;;;10.70;99.90;;;;;;6219693;23;20005;-69
2023/01/31 13:29:08;;;;;;;3.35;1.10;;;10.80;99.90;;;;;;6219194;23;20005;-69